createdAt,value
2017-07-24T00:00:06.883Z,0
2017-07-24T00:01:06.898Z,0
2017-07-24T00:02:06.968Z,0
2017-07-24T00:03:06.978Z,0
2017-07-24T00:04:07.016Z,0
2017-07-24T00:05:07.070Z,0
2017-07-24T00:06:07.072Z,0
2017-07-24T00:07:07.168Z,0
2017-07-24T00:08:07.169Z,0
2017-07-24T00:09:07.217Z,0
2017-07-24T00:10:07.345Z,0
2017-07-24T00:11:07.269Z,0
2017-07-24T00:12:07.307Z,0
2017-07-24T00:13:07.348Z,0
2017-07-24T00:14:07.377Z,0
2017-07-24T00:15:07.415Z,0
2017-07-24T00:16:07.439Z,0
2017-07-24T00:17:07.454Z,0
2017-07-24T00:18:07.513Z,0
2017-07-24T00:19:07.549Z,0
2017-07-24T00:20:07.595Z,0
2017-07-24T00:21:07.577Z,0
2017-07-24T00:22:07.685Z,0
2017-07-24T00:23:07.672Z,0
2017-07-24T00:24:07.676Z,0
2017-07-24T00:25:07.798Z,0
2017-07-24T00:26:07.799Z,0
2017-07-24T00:27:07.827Z,0
2017-07-24T00:28:07.849Z,0
2017-07-24T00:29:07.869Z,0
2017-07-24T00:30:07.926Z,0
2017-07-24T00:31:07.961Z,0
2017-07-24T00:32:07.989Z,0
2017-07-24T00:33:08.029Z,0
2017-07-24T00:34:08.071Z,0
2017-07-24T00:35:08.096Z,0
2017-07-24T00:36:08.137Z,0
2017-07-24T00:37:08.173Z,0
2017-07-24T00:38:08.202Z,0
2017-07-24T00:39:08.234Z,0
2017-07-24T00:40:08.280Z,0
2017-07-24T00:41:08.306Z,0
2017-07-24T00:42:08.339Z,0
2017-07-24T00:43:08.391Z,0
2017-07-24T00:44:08.398Z,0
2017-07-24T00:45:08.473Z,0
2017-07-24T00:46:08.470Z,0
2017-07-24T00:47:08.513Z,0
2017-07-24T00:48:08.539Z,0
2017-07-24T00:49:08.591Z,0
2017-07-24T00:50:08.621Z,0
2017-07-24T00:51:08.667Z,0
2017-07-24T00:52:08.672Z,0
2017-07-24T00:53:08.719Z,0
2017-07-24T00:54:08.785Z,0
2017-07-24T00:55:08.819Z,0
2017-07-24T00:56:08.828Z,0
2017-07-24T00:57:08.839Z,0
2017-07-24T00:58:08.883Z,0
2017-07-24T00:59:08.935Z,0
2017-07-24T01:00:08.991Z,0
2017-07-24T01:01:08.997Z,0
2017-07-24T01:02:09.041Z,0
2017-07-24T01:03:09.069Z,0
2017-07-24T01:04:09.080Z,0
2017-07-24T01:05:09.143Z,0
2017-07-24T01:06:09.137Z,0
2017-07-24T01:07:09.189Z,0
2017-07-24T01:08:09.241Z,0
2017-07-24T01:09:09.269Z,0
2017-07-24T01:10:09.269Z,0
2017-07-24T01:11:09.327Z,0
2017-07-24T01:12:09.372Z,0
2017-07-24T01:13:09.397Z,0
2017-07-24T01:14:09.463Z,0
2017-07-24T01:15:09.488Z,0
2017-07-24T01:16:09.495Z,0
2017-07-24T01:17:09.548Z,0
2017-07-24T01:18:09.582Z,0
2017-07-24T01:19:09.568Z,0
2017-07-24T01:20:09.680Z,0
2017-07-24T01:21:09.696Z,0
2017-07-24T01:22:09.711Z,0
2017-07-24T01:23:09.764Z,0
2017-07-24T01:24:09.775Z,0
2017-07-24T01:25:09.809Z,0
2017-07-24T01:26:09.863Z,0
2017-07-24T01:27:09.902Z,0
2017-07-24T01:28:09.928Z,0
2017-07-24T01:29:09.969Z,0
2017-07-24T01:30:10.013Z,0
2017-07-24T01:31:10.035Z,0
2017-07-24T01:32:10.060Z,0
2017-07-24T01:33:10.095Z,0
2017-07-24T01:34:10.139Z,0
2017-07-24T01:35:10.164Z,0
2017-07-24T01:36:10.215Z,0
2017-07-24T01:37:10.241Z,0
2017-07-24T01:38:10.276Z,0
2017-07-24T01:39:10.269Z,0
2017-07-24T01:40:10.337Z,0
2017-07-24T01:41:10.379Z,0
2017-07-24T01:42:10.372Z,0
2017-07-24T01:43:10.445Z,0
2017-07-24T01:44:10.478Z,0
2017-07-24T01:45:10.739Z,0
2017-07-24T01:46:10.545Z,0
2017-07-24T01:47:10.599Z,0
2017-07-24T01:48:10.603Z,0
2017-07-24T01:49:10.650Z,0
2017-07-24T01:50:10.657Z,0
2017-07-24T01:51:10.679Z,0
2017-07-24T01:52:10.745Z,0
2017-07-24T01:53:10.774Z,0
2017-07-24T01:54:10.803Z,0
2017-07-24T01:55:10.857Z,0
2017-07-24T01:56:10.902Z,0
2017-07-24T01:57:10.912Z,0
2017-07-24T01:58:10.972Z,0
2017-07-24T01:59:11.000Z,0
2017-07-24T02:00:11.178Z,0
2017-07-24T02:01:11.055Z,0
2017-07-24T02:02:11.110Z,0
2017-07-24T02:03:11.120Z,0
2017-07-24T02:04:11.164Z,0
2017-07-24T02:05:11.198Z,0
2017-07-24T02:06:11.215Z,0
2017-07-24T02:07:11.270Z,0
2017-07-24T02:08:11.312Z,0
2017-07-24T02:09:11.323Z,0
2017-07-24T02:10:11.373Z,0
2017-07-24T02:11:11.375Z,0
2017-07-24T02:12:11.423Z,0
2017-07-24T02:13:11.477Z,0
2017-07-24T02:14:11.504Z,0
2017-07-24T02:15:11.580Z,0
2017-07-24T02:16:11.577Z,0
2017-07-24T02:17:11.599Z,0
2017-07-24T02:18:11.643Z,0
2017-07-24T02:19:11.685Z,0
2017-07-24T02:20:11.711Z,0
2017-07-24T02:21:11.745Z,0
2017-07-24T02:22:11.795Z,0
2017-07-24T02:23:11.806Z,0
2017-07-24T02:24:11.846Z,0
2017-07-24T02:25:11.898Z,0
2017-07-24T02:26:11.905Z,0
2017-07-24T02:27:11.955Z,0
2017-07-24T02:28:11.986Z,0
2017-07-24T02:29:11.979Z,0
2017-07-24T02:30:12.051Z,0
2017-07-24T02:31:12.105Z,0
2017-07-24T02:32:12.113Z,0
2017-07-24T02:33:12.140Z,0
2017-07-24T02:34:12.185Z,0
2017-07-24T02:35:12.289Z,0
2017-07-24T02:36:12.252Z,0
2017-07-24T02:37:12.280Z,0
2017-07-24T02:38:12.307Z,0
2017-07-24T02:39:12.362Z,0
2017-07-24T02:40:12.380Z,0
2017-07-24T02:41:12.378Z,0
2017-07-24T02:42:12.454Z,0
2017-07-24T02:43:12.479Z,0
2017-07-24T02:44:12.481Z,0
2017-07-24T02:45:12.541Z,0
2017-07-24T02:46:12.597Z,0
2017-07-24T02:47:12.600Z,0
2017-07-24T02:48:12.640Z,0
2017-07-24T02:49:12.686Z,0
2017-07-24T02:50:12.705Z,0
2017-07-24T02:51:12.737Z,0
2017-07-24T02:52:12.787Z,0
2017-07-24T02:53:12.826Z,0
2017-07-24T02:54:12.855Z,0
2017-07-24T02:55:12.875Z,0
2017-07-24T02:56:12.908Z,0
2017-07-24T02:57:12.962Z,0
2017-07-24T02:58:12.988Z,0
2017-07-24T02:59:13.027Z,0
2017-07-24T03:00:13.038Z,0
2017-07-24T03:01:13.082Z,0
2017-07-24T03:02:13.136Z,0
2017-07-24T03:03:13.165Z,0
2017-07-24T03:04:13.160Z,0
2017-07-24T03:05:13.185Z,0
2017-07-24T03:06:13.234Z,0
2017-07-24T03:07:13.326Z,0
2017-07-24T03:08:13.313Z,5
2017-07-24T03:09:13.363Z,5
2017-07-24T03:10:13.384Z,5
2017-07-24T03:11:13.391Z,5
2017-07-24T03:12:13.410Z,5
2017-07-24T03:13:13.491Z,5
2017-07-24T03:14:13.496Z,5
2017-07-24T03:15:13.545Z,5
2017-07-24T03:16:13.601Z,5
2017-07-24T03:17:13.639Z,10
2017-07-24T03:18:13.638Z,10
2017-07-24T03:19:13.702Z,10
2017-07-24T03:20:13.681Z,10
2017-07-24T03:21:13.782Z,10
2017-07-24T03:22:13.787Z,10
2017-07-24T03:23:13.775Z,10
2017-07-24T03:24:13.861Z,15
2017-07-24T03:25:13.886Z,15
2017-07-24T03:26:13.938Z,15
2017-07-24T03:27:13.981Z,15
2017-07-24T03:28:14.002Z,15
2017-07-24T03:29:14.041Z,15
2017-07-24T03:30:14.085Z,15
2017-07-24T03:31:14.125Z,20
2017-07-24T03:32:14.146Z,20
2017-07-24T03:33:14.159Z,20
2017-07-24T03:34:14.202Z,20
2017-07-24T03:35:14.273Z,25
2017-07-24T03:36:14.271Z,25
2017-07-24T03:37:14.290Z,30
2017-07-24T03:38:14.304Z,30
2017-07-24T03:39:14.378Z,35
2017-07-24T03:40:14.399Z,35
2017-07-24T03:41:14.434Z,40
2017-07-24T03:42:14.479Z,40
2017-07-24T03:43:14.500Z,45
2017-07-24T03:44:14.536Z,50
2017-07-24T03:45:14.547Z,55
2017-07-24T03:46:14.571Z,60
2017-07-24T03:47:14.609Z,60
2017-07-24T03:48:14.667Z,60
2017-07-24T03:49:14.715Z,60
2017-07-24T03:50:14.654Z,60
2017-07-24T03:51:14.770Z,60
2017-07-24T03:52:14.801Z,60
2017-07-24T03:53:14.801Z,65
2017-07-24T03:54:14.850Z,70
2017-07-24T03:55:14.871Z,70
2017-07-24T03:56:14.940Z,70
2017-07-24T03:57:14.970Z,75
2017-07-24T03:58:14.994Z,75
2017-07-24T03:59:15.043Z,80
2017-07-24T04:00:34.258Z,80
2017-07-24T04:01:15.263Z,85
2017-07-24T04:02:15.230Z,85
2017-07-24T04:03:15.288Z,95
2017-07-24T04:04:15.333Z,105
2017-07-24T04:05:15.565Z,110
2017-07-24T04:06:15.417Z,115
2017-07-24T04:07:15.440Z,120
2017-07-24T04:08:15.439Z,130
2017-07-24T04:09:15.510Z,135
2017-07-24T04:10:15.530Z,130
2017-07-24T04:11:15.532Z,130
2017-07-24T04:12:15.588Z,130
2017-07-24T04:13:15.639Z,130
2017-07-24T04:14:15.655Z,125
2017-07-24T04:15:15.711Z,125
2017-07-24T04:16:15.701Z,125
2017-07-24T04:17:15.738Z,130
2017-07-24T04:18:15.818Z,135
2017-07-24T04:19:15.831Z,140
2017-07-24T04:20:15.869Z,135
2017-07-24T04:21:15.916Z,135
2017-07-24T04:22:15.928Z,140
2017-07-24T04:23:15.951Z,145
2017-07-24T04:24:15.997Z,155
2017-07-24T04:25:16.045Z,160
2017-07-24T04:26:16.069Z,160
2017-07-24T04:27:16.100Z,165
2017-07-24T04:28:16.137Z,165
2017-07-24T04:29:16.169Z,165
2017-07-24T04:30:16.199Z,170
2017-07-24T04:31:16.249Z,185
2017-07-24T04:32:16.263Z,180
2017-07-24T04:33:16.303Z,170
2017-07-24T04:34:16.326Z,170
2017-07-24T04:35:16.386Z,170
2017-07-24T04:36:16.396Z,175
2017-07-24T04:37:16.470Z,180
2017-07-24T04:38:16.486Z,180
2017-07-24T04:39:16.559Z,180
2017-07-24T04:40:16.570Z,185
2017-07-24T04:41:16.580Z,185
2017-07-24T04:42:16.637Z,185
2017-07-24T04:43:16.670Z,190
2017-07-24T04:44:16.742Z,190
2017-07-24T04:45:16.746Z,190
2017-07-24T04:46:16.749Z,195
2017-07-24T04:47:16.807Z,195
2017-07-24T04:48:16.824Z,205
2017-07-24T04:49:16.883Z,205
2017-07-24T04:50:16.911Z,210
2017-07-24T04:51:16.925Z,220
2017-07-24T04:52:16.938Z,220
2017-07-24T04:53:17.018Z,220
2017-07-24T04:54:17.051Z,215
2017-07-24T04:55:17.062Z,215
2017-07-24T04:56:17.091Z,215
2017-07-24T04:57:17.145Z,220
2017-07-24T04:58:17.158Z,220
2017-07-24T04:59:17.214Z,225
2017-07-24T05:00:24.670Z,230
2017-07-24T05:01:17.422Z,235
2017-07-24T05:02:17.325Z,240
2017-07-24T05:03:17.387Z,255
2017-07-24T05:04:17.352Z,255
2017-07-24T05:05:17.431Z,265
2017-07-24T05:06:17.462Z,270
2017-07-24T05:07:17.509Z,275
2017-07-24T05:08:17.521Z,285
2017-07-24T05:09:17.556Z,290
2017-07-24T05:10:17.604Z,295
2017-07-24T05:11:17.647Z,300
2017-07-24T05:12:17.662Z,305
2017-07-24T05:13:17.698Z,315
2017-07-24T05:14:17.738Z,310
2017-07-24T05:15:17.752Z,315
2017-07-24T05:16:17.812Z,310
2017-07-24T05:17:17.852Z,315
2017-07-24T05:18:17.850Z,320
2017-07-24T05:19:17.921Z,320
2017-07-24T05:20:17.954Z,315
2017-07-24T05:21:17.977Z,315
2017-07-24T05:22:18.024Z,305
2017-07-24T05:23:18.053Z,305
2017-07-24T05:24:18.089Z,315
2017-07-24T05:25:18.127Z,305
2017-07-24T05:26:18.153Z,330
2017-07-24T05:27:18.227Z,320
2017-07-24T05:28:18.301Z,325
2017-07-24T05:29:18.259Z,330
2017-07-24T05:30:18.320Z,335
2017-07-24T05:31:18.361Z,330
2017-07-24T05:32:18.366Z,345
2017-07-24T05:33:18.424Z,355
2017-07-24T05:34:18.453Z,345
2017-07-24T05:35:18.491Z,340
2017-07-24T05:36:18.662Z,320
2017-07-24T05:37:18.571Z,305
2017-07-24T05:38:18.589Z,305
2017-07-24T05:39:18.637Z,310
2017-07-24T05:40:18.682Z,325
2017-07-24T05:41:18.705Z,340
2017-07-24T05:42:18.721Z,365
2017-07-24T05:43:18.763Z,385
2017-07-24T05:44:18.820Z,360
2017-07-24T05:45:18.841Z,355
2017-07-24T05:46:18.876Z,385
2017-07-24T05:47:18.893Z,445
2017-07-24T05:48:18.948Z,390
2017-07-24T05:49:18.986Z,375
2017-07-24T05:50:19.122Z,355
2017-07-24T05:51:19.082Z,355
2017-07-24T05:52:19.100Z,370
2017-07-24T05:53:19.178Z,410
2017-07-24T05:54:19.354Z,465
2017-07-24T05:55:19.382Z,595
2017-07-24T05:56:19.256Z,690
2017-07-24T05:57:19.278Z,650
2017-07-24T05:58:19.327Z,510
2017-07-24T05:59:19.367Z,460
2017-07-24T06:00:19.608Z,500
2017-07-24T06:01:19.473Z,505
2017-07-24T06:02:19.453Z,495
2017-07-24T06:03:19.500Z,465
2017-07-24T06:04:19.525Z,465
2017-07-24T06:05:19.781Z,460
2017-07-24T06:06:19.639Z,440
2017-07-24T06:07:19.635Z,435
2017-07-24T06:08:19.640Z,435
2017-07-24T06:09:19.704Z,450
2017-07-24T06:10:19.774Z,470
2017-07-24T06:11:19.778Z,495
2017-07-24T06:12:19.784Z,500
2017-07-24T06:13:19.875Z,525
2017-07-24T06:14:19.893Z,515
2017-07-24T06:15:19.947Z,545
2017-07-24T06:16:19.985Z,550
2017-07-24T06:17:20.022Z,565
2017-07-24T06:18:20.042Z,610
2017-07-24T06:19:20.116Z,595
2017-07-24T06:20:20.129Z,585
2017-07-24T06:21:20.187Z,605
2017-07-24T06:22:20.148Z,625
2017-07-24T06:23:20.251Z,595
2017-07-24T06:24:20.269Z,590
2017-07-24T06:25:20.303Z,665
2017-07-24T06:26:20.330Z,655
2017-07-24T06:27:20.343Z,860
2017-07-24T06:28:20.451Z,805
2017-07-24T06:29:20.444Z,920
2017-07-24T06:30:20.496Z,910
2017-07-24T06:31:20.545Z,915
2017-07-24T06:32:20.563Z,910
2017-07-24T06:33:20.596Z,935
2017-07-24T06:34:20.649Z,1070
2017-07-24T06:35:20.660Z,950
2017-07-24T06:36:20.880Z,960
2017-07-24T06:37:20.733Z,770
2017-07-24T06:38:20.791Z,765
2017-07-24T06:39:20.850Z,765
2017-07-24T06:40:20.863Z,755
2017-07-24T06:41:21.022Z,650
2017-07-24T06:42:20.957Z,665
2017-07-24T06:43:20.981Z,635
2017-07-24T06:44:21.025Z,670
2017-07-24T06:45:21.074Z,720
2017-07-24T06:46:21.222Z,785
2017-07-24T06:47:21.151Z,825
2017-07-24T06:48:21.194Z,800
2017-07-24T06:49:21.223Z,845
2017-07-24T06:50:21.266Z,840
2017-07-24T06:51:21.472Z,755
2017-07-24T06:52:21.349Z,780
2017-07-24T06:53:21.385Z,945
2017-07-24T06:54:21.426Z,960
2017-07-24T06:55:21.463Z,1020
2017-07-24T06:56:21.609Z,1070
2017-07-24T06:57:21.753Z,1005
2017-07-24T06:58:21.557Z,910
2017-07-24T06:59:21.626Z,915
2017-07-24T07:00:21.635Z,910
2017-07-24T07:01:21.661Z,870
2017-07-24T07:02:21.788Z,1000
2017-07-24T07:03:21.777Z,955
2017-07-24T07:04:21.811Z,1060
2017-07-24T07:05:21.844Z,1050
2017-07-24T07:06:21.894Z,1045
2017-07-24T07:07:21.954Z,1125
2017-07-24T07:08:21.977Z,1100
2017-07-24T07:09:22.002Z,1075
2017-07-24T07:10:22.036Z,1060
2017-07-24T07:11:22.085Z,1055
2017-07-24T07:12:22.108Z,1030
2017-07-24T07:13:22.168Z,1085
2017-07-24T07:14:22.140Z,1105
2017-07-24T07:15:22.246Z,1105
2017-07-24T07:16:22.279Z,1080
2017-07-24T07:17:22.311Z,1085
2017-07-24T07:18:22.349Z,1110
2017-07-24T07:19:22.408Z,1075
2017-07-24T07:20:22.446Z,990
2017-07-24T07:21:22.484Z,1120
2017-07-24T07:22:22.526Z,1110
2017-07-24T07:23:22.545Z,1150
2017-07-24T07:24:22.613Z,1215
2017-07-24T07:25:22.646Z,1295
2017-07-24T07:26:22.686Z,1385
2017-07-24T07:27:22.874Z,1335
2017-07-24T07:28:22.755Z,1340
2017-07-24T07:29:22.815Z,1450
2017-07-24T07:30:22.847Z,1500
2017-07-24T07:31:22.883Z,1545
2017-07-24T07:32:23.035Z,1615
2017-07-24T07:33:22.982Z,1600
2017-07-24T07:34:23.010Z,1915
2017-07-24T07:35:23.056Z,1785
2017-07-24T07:36:23.306Z,1780
2017-07-24T07:37:23.221Z,1730
2017-07-24T07:38:23.171Z,1735
2017-07-24T07:39:23.206Z,1515
2017-07-24T07:40:23.252Z,1410
2017-07-24T07:41:23.292Z,1495
2017-07-24T07:42:23.491Z,1590
2017-07-24T07:43:23.393Z,1835
2017-07-24T07:44:23.391Z,1895
2017-07-24T07:45:23.463Z,1840
2017-07-24T07:46:23.519Z,1755
2017-07-24T07:47:23.640Z,1725
2017-07-24T07:48:23.558Z,1610
2017-07-24T07:49:23.634Z,1625
2017-07-24T07:50:23.662Z,1335
2017-07-24T07:51:23.694Z,1930
2017-07-24T07:52:23.747Z,2190
2017-07-24T07:53:23.765Z,2370
2017-07-24T07:54:23.828Z,2370
2017-07-24T07:55:23.864Z,2265
2017-07-24T07:56:23.918Z,2160
2017-07-24T07:57:23.955Z,2240
2017-07-24T07:58:24.008Z,2275
2017-07-24T07:59:24.008Z,2310
2017-07-24T08:00:24.093Z,2345
2017-07-24T08:01:24.128Z,2205
2017-07-24T08:02:24.169Z,2185
2017-07-24T08:03:24.184Z,2285
2017-07-24T08:04:24.267Z,2230
2017-07-24T08:05:24.307Z,2205
2017-07-24T08:06:24.340Z,2285
2017-07-24T08:07:24.389Z,2165
2017-07-24T08:08:24.406Z,2135
2017-07-24T08:09:24.478Z,2245
2017-07-24T08:10:24.711Z,2275
2017-07-24T08:11:24.621Z,2310
2017-07-24T08:12:24.606Z,2325
2017-07-24T08:13:24.630Z,2395
2017-07-24T08:14:24.721Z,2445
2017-07-24T08:15:24.749Z,2525
2017-07-24T08:16:24.768Z,2535
2017-07-24T08:17:24.799Z,2585
2017-07-24T08:18:24.961Z,2545
2017-07-24T08:19:24.926Z,2635
2017-07-24T08:20:24.980Z,2730
2017-07-24T08:21:25.003Z,2895
2017-07-24T08:22:25.047Z,2825
2017-07-24T08:23:25.099Z,2630
2017-07-24T08:24:25.141Z,2665
2017-07-24T08:25:25.224Z,2545
2017-07-24T08:26:25.232Z,2430
2017-07-24T08:27:25.259Z,2490
2017-07-24T08:28:25.420Z,2495
2017-07-24T08:29:25.361Z,2505
2017-07-24T08:30:25.416Z,2515
2017-07-24T08:31:25.472Z,2390
2017-07-24T08:32:25.492Z,2525
2017-07-24T08:33:25.567Z,2725
2017-07-24T08:34:25.600Z,2740
2017-07-24T08:35:25.624Z,2655
2017-07-24T08:36:25.691Z,2725
2017-07-24T08:37:25.734Z,2605
2017-07-24T08:38:26.161Z,2585
2017-07-24T08:39:25.817Z,2575
2017-07-24T08:40:25.872Z,2585
2017-07-24T08:41:25.932Z,2470
2017-07-24T08:42:25.979Z,2340
2017-07-24T08:43:25.994Z,2390
2017-07-24T08:44:26.067Z,2325
2017-07-24T08:45:26.102Z,2325
2017-07-24T08:46:26.198Z,2040
2017-07-24T08:47:26.252Z,2060
2017-07-24T08:48:26.391Z,1990
2017-07-24T08:49:26.311Z,1980
2017-07-24T08:50:26.377Z,2150
2017-07-24T08:51:26.409Z,2180
2017-07-24T08:52:26.466Z,2150
2017-07-24T08:53:26.502Z,2230
2017-07-24T08:54:26.931Z,2385
2017-07-24T08:55:27.424Z,2270
2017-07-24T08:56:27.064Z,2190
2017-07-24T08:57:26.671Z,2585
2017-07-24T08:58:26.725Z,2615
2017-07-24T08:59:26.760Z,2555
2017-07-24T09:00:26.831Z,2490
2017-07-24T09:01:27.390Z,2375
2017-07-24T09:02:26.893Z,2340
2017-07-24T09:03:26.932Z,2295
2017-07-24T09:04:27.016Z,2390
2017-07-24T09:05:27.050Z,2415
2017-07-24T09:06:27.132Z,2200
2017-07-24T09:07:27.157Z,2165
2017-07-24T09:08:27.201Z,1355
2017-07-24T09:09:27.253Z,1100
2017-07-24T09:10:27.487Z,1615
2017-07-24T09:11:27.334Z,1530
2017-07-24T09:12:27.381Z,1480
2017-07-24T09:13:27.424Z,1435
2017-07-24T09:14:27.400Z,1420
2017-07-24T09:15:27.531Z,1240
2017-07-24T09:16:27.531Z,1185
2017-07-24T09:17:27.602Z,1110
2017-07-24T09:18:27.643Z,1175
2017-07-24T09:19:27.651Z,1195
2017-07-24T09:20:27.768Z,1325
2017-07-24T09:21:27.763Z,1375
2017-07-24T09:22:27.798Z,1255
2017-07-24T09:23:27.872Z,1300
2017-07-24T09:24:27.909Z,1615
2017-07-24T09:25:27.960Z,1700
2017-07-24T09:26:28.003Z,1735
2017-07-24T09:27:28.021Z,1690
2017-07-24T09:28:28.128Z,1660
2017-07-24T09:29:28.129Z,1655
2017-07-24T09:30:28.141Z,1755
2017-07-24T09:31:28.225Z,1830
2017-07-24T09:32:28.295Z,1815
2017-07-24T09:33:28.329Z,1525
2017-07-24T09:34:28.370Z,1185
2017-07-24T09:35:28.426Z,1350
2017-07-24T09:36:28.643Z,1150
2017-07-24T09:37:28.483Z,995
2017-07-24T09:38:28.499Z,1655
2017-07-24T09:39:28.546Z,1675
2017-07-24T09:40:28.618Z,1770
2017-07-24T09:41:28.663Z,1950
2017-07-24T09:42:28.726Z,1975
2017-07-24T09:43:28.776Z,2045
2017-07-24T09:44:28.849Z,2215
2017-07-24T09:45:28.854Z,2010
2017-07-24T09:46:28.853Z,1985
2017-07-24T09:47:28.943Z,2045
2017-07-24T09:48:28.962Z,1710
2017-07-24T09:49:29.096Z,1550
2017-07-24T09:50:29.049Z,1545
2017-07-24T09:51:29.103Z,1600
2017-07-24T09:52:29.156Z,1665
2017-07-24T09:53:29.198Z,1600
2017-07-24T09:54:29.260Z,1730
2017-07-24T09:55:29.312Z,1725
2017-07-24T09:56:29.332Z,1770
2017-07-24T09:57:29.397Z,1935
2017-07-24T09:58:29.437Z,1930
2017-07-24T09:59:29.454Z,1995
2017-07-24T10:00:29.547Z,1970
2017-07-24T10:01:29.673Z,1975
2017-07-24T10:02:29.616Z,2165
2017-07-24T10:03:29.895Z,2285
2017-07-24T10:04:29.699Z,2395
2017-07-24T10:05:29.756Z,2295
2017-07-24T10:06:29.802Z,2090
2017-07-24T10:07:29.830Z,2235
2017-07-24T10:08:29.927Z,2200
2017-07-24T10:09:29.935Z,2230
2017-07-24T10:10:30.001Z,2240
2017-07-24T10:11:30.044Z,2120
2017-07-24T10:12:30.093Z,2105
2017-07-24T10:13:30.145Z,2045
2017-07-24T10:14:30.174Z,1935
2017-07-24T10:15:30.240Z,1925
2017-07-24T10:16:30.261Z,2060
2017-07-24T10:17:30.288Z,1925
2017-07-24T10:18:30.360Z,1725
2017-07-24T10:19:30.403Z,1845
2017-07-24T10:20:30.462Z,1970
2017-07-24T10:21:30.489Z,2040
2017-07-24T10:22:30.525Z,2005
2017-07-24T10:23:30.588Z,2130
2017-07-24T10:24:30.646Z,2015
2017-07-24T10:25:30.690Z,1920
2017-07-24T10:26:30.692Z,1995
2017-07-24T10:27:30.777Z,1840
2017-07-24T10:28:30.835Z,1820
2017-07-24T10:29:30.859Z,1665
2017-07-24T10:30:30.901Z,1475
2017-07-24T10:31:30.962Z,1375
2017-07-24T10:32:30.992Z,1715
2017-07-24T10:33:31.016Z,1585
2017-07-24T10:34:31.065Z,1550
2017-07-24T10:35:31.139Z,1725
2017-07-24T10:36:31.145Z,1730
2017-07-24T10:37:31.210Z,1825
2017-07-24T10:38:31.258Z,1935
2017-07-24T10:39:31.261Z,1500
2017-07-24T10:40:31.318Z,1750
2017-07-24T10:41:31.364Z,1825
2017-07-24T10:42:31.410Z,1395
2017-07-24T10:43:31.491Z,1455
2017-07-24T10:44:31.520Z,1680
2017-07-24T10:45:31.565Z,1505
2017-07-24T10:46:31.604Z,1660
2017-07-24T10:47:31.896Z,1875
2017-07-24T10:48:31.637Z,2055
2017-07-24T10:49:31.720Z,2100
2017-07-24T10:50:31.768Z,1900
2017-07-24T10:51:31.803Z,1665
2017-07-24T10:52:31.863Z,1380
2017-07-24T10:53:31.977Z,1535
2017-07-24T10:54:31.937Z,1665
2017-07-24T10:55:31.981Z,1450
2017-07-24T10:56:32.014Z,1515
2017-07-24T10:57:32.093Z,1335
2017-07-24T10:58:32.090Z,1330
2017-07-24T10:59:32.143Z,1320
2017-07-24T11:00:32.226Z,1310
2017-07-24T11:01:32.450Z,1285
2017-07-24T11:02:32.299Z,1260
2017-07-24T11:03:32.544Z,1260
2017-07-24T11:04:32.387Z,1340
2017-07-24T11:05:32.405Z,1295
2017-07-24T11:06:32.513Z,1185
2017-07-24T11:07:32.479Z,1170
2017-07-24T11:08:32.540Z,1150
2017-07-24T11:09:32.574Z,1170
2017-07-24T11:10:32.615Z,1205
2017-07-24T11:11:32.696Z,1295
2017-07-24T11:12:32.725Z,1220
2017-07-24T11:13:32.727Z,1015
2017-07-24T11:14:32.776Z,900
2017-07-24T11:15:32.833Z,865
2017-07-24T11:16:32.900Z,840
2017-07-24T11:17:33.002Z,815
2017-07-24T11:18:32.956Z,790
2017-07-24T11:19:33.079Z,795
2017-07-24T11:20:33.083Z,795
2017-07-24T11:21:33.044Z,790
2017-07-24T11:22:33.117Z,790
2017-07-24T11:23:33.383Z,770
2017-07-24T11:24:33.205Z,745
2017-07-24T11:25:33.257Z,735
2017-07-24T11:26:33.514Z,705
2017-07-24T11:27:33.314Z,700
2017-07-24T11:28:33.603Z,680
2017-07-24T11:29:33.435Z,675
2017-07-24T11:30:33.482Z,675
2017-07-24T11:31:33.479Z,680
2017-07-24T11:32:33.556Z,680
2017-07-24T11:33:33.775Z,675
2017-07-24T11:34:33.616Z,675
2017-07-24T11:35:33.658Z,665
2017-07-24T11:36:33.707Z,665
2017-07-24T11:37:33.726Z,665
2017-07-24T11:38:33.775Z,665
2017-07-24T11:39:33.841Z,665
2017-07-24T11:40:33.884Z,665
2017-07-24T11:41:33.905Z,660
2017-07-24T11:42:34.001Z,665
2017-07-24T11:43:33.954Z,685
2017-07-24T11:44:34.012Z,675
2017-07-24T11:45:34.047Z,685
2017-07-24T11:46:34.125Z,670
2017-07-24T11:47:34.145Z,630
2017-07-24T11:48:34.192Z,595
2017-07-24T11:49:34.682Z,590
2017-07-24T11:50:34.286Z,595
2017-07-24T11:51:34.295Z,585
2017-07-24T11:52:34.359Z,580
2017-07-24T11:53:34.430Z,570
2017-07-24T11:54:34.481Z,565
2017-07-24T11:55:34.689Z,570
2017-07-24T11:56:34.515Z,585
2017-07-24T11:57:34.592Z,610
2017-07-24T11:58:34.599Z,625
2017-07-24T11:59:34.691Z,620
2017-07-24T12:00:34.906Z,610
2017-07-24T12:01:41.004Z,590
2017-07-24T12:02:35.109Z,600
2017-07-24T12:03:34.788Z,610
2017-07-24T12:04:35.072Z,615
2017-07-24T12:05:35.051Z,610
2017-07-24T12:06:34.951Z,575
2017-07-24T12:07:34.994Z,545
2017-07-24T12:08:35.014Z,550
2017-07-24T12:09:35.089Z,575
2017-07-24T12:10:35.303Z,600
2017-07-24T12:11:35.138Z,625
2017-07-24T12:12:35.166Z,625
2017-07-24T12:13:35.227Z,625
2017-07-24T12:14:35.241Z,620
2017-07-24T12:15:35.317Z,615
2017-07-24T12:16:35.597Z,600
2017-07-24T12:17:35.382Z,595
2017-07-24T12:18:35.605Z,590
2017-07-24T12:19:35.409Z,600
2017-07-24T12:20:35.494Z,605
2017-07-24T12:21:35.546Z,590
2017-07-24T12:22:35.582Z,580
2017-07-24T12:23:35.616Z,570
2017-07-24T12:24:35.717Z,565
2017-07-24T12:25:35.646Z,565
2017-07-24T12:26:35.749Z,575
2017-07-24T12:27:35.777Z,580
2017-07-24T12:28:35.804Z,560
2017-07-24T12:29:35.840Z,535
2017-07-24T12:30:36.075Z,515
2017-07-24T12:31:35.948Z,515
2017-07-24T12:32:36.003Z,500
2017-07-24T12:33:36.011Z,500
2017-07-24T12:34:36.090Z,505
2017-07-24T12:35:36.089Z,505
2017-07-24T12:36:36.113Z,510
2017-07-24T12:37:36.194Z,515
2017-07-24T12:38:36.189Z,505
2017-07-24T12:39:36.252Z,505
2017-07-24T12:40:36.295Z,505
2017-07-24T12:41:36.547Z,505
2017-07-24T12:42:36.347Z,500
2017-07-24T12:43:36.417Z,500
2017-07-24T12:44:36.606Z,495
2017-07-24T12:45:36.475Z,495
2017-07-24T12:46:36.513Z,490
2017-07-24T12:47:36.579Z,485
2017-07-24T12:48:36.619Z,480
2017-07-24T12:49:36.643Z,480
2017-07-24T12:50:36.825Z,490
2017-07-24T12:51:36.716Z,515
2017-07-24T12:52:36.776Z,505
2017-07-24T12:53:36.841Z,505
2017-07-24T12:54:36.842Z,515
2017-07-24T12:55:37.062Z,515
2017-07-24T12:56:36.954Z,520
2017-07-24T12:57:37.154Z,535
2017-07-24T12:58:37.022Z,565
2017-07-24T12:59:37.001Z,565
2017-07-24T13:00:37.091Z,570
2017-07-24T13:01:50.850Z,575
2017-07-24T13:02:37.152Z,580
2017-07-24T13:03:37.186Z,575
2017-07-24T13:04:37.252Z,575
2017-07-24T13:05:37.278Z,565
2017-07-24T13:06:37.326Z,550
2017-07-24T13:07:37.388Z,545
2017-07-24T13:08:37.335Z,550
2017-07-24T13:09:37.407Z,565
2017-07-24T13:10:37.693Z,565
2017-07-24T13:11:37.720Z,560
2017-07-24T13:12:37.560Z,565
2017-07-24T13:13:37.610Z,555
2017-07-24T13:14:37.617Z,555
2017-07-24T13:15:37.737Z,545
2017-07-24T13:16:37.706Z,540
2017-07-24T13:17:37.800Z,510
2017-07-24T13:18:37.772Z,500
2017-07-24T13:19:37.802Z,490
2017-07-24T13:20:37.888Z,485
2017-07-24T13:21:37.912Z,485
2017-07-24T13:22:37.938Z,475
2017-07-24T13:23:38.216Z,480
2017-07-24T13:24:38.047Z,480
2017-07-24T13:25:38.103Z,485
2017-07-24T13:26:38.097Z,490
2017-07-24T13:27:38.139Z,505
2017-07-24T13:28:38.185Z,510
2017-07-24T13:29:38.225Z,505
2017-07-24T13:30:38.406Z,505
2017-07-24T13:31:38.521Z,505
2017-07-24T13:32:38.547Z,510
2017-07-24T13:33:38.356Z,505
2017-07-24T13:34:38.399Z,500
2017-07-24T13:35:38.443Z,500
2017-07-24T13:36:38.502Z,510
2017-07-24T13:37:38.555Z,515
2017-07-24T13:38:38.564Z,525
2017-07-24T13:39:38.623Z,530
2017-07-24T13:40:38.676Z,525
2017-07-24T13:41:38.720Z,525
2017-07-24T13:42:38.724Z,525
2017-07-24T13:43:38.802Z,530
2017-07-24T13:44:38.810Z,530
2017-07-24T13:45:39.026Z,530
2017-07-24T13:46:38.888Z,520
2017-07-24T13:47:38.962Z,510
2017-07-24T13:48:39.009Z,495
2017-07-24T13:49:38.986Z,475
2017-07-24T13:50:39.070Z,460
2017-07-24T13:51:39.117Z,460
2017-07-24T13:52:39.148Z,470